Terminal Aerodrome Forecast
Issued by NWS

Home | Current Version | Previous Version | Text Only | Print | Product List | Glossary On
Versions: 1 2 3 4 5 6 7 8 9 10 11 12 13 14 15 16 17 18
061
FTUS43 KAPX 080320 AAB
TAFPLN
TAF AMD
KPLN 080320Z 0803/0824 21003KT P6SM OVC035
     FM080600 00000KT P6SM OVC025
     FM080800 00000KT 5SM BR OVC015
     FM082200 27003KT 3SM BR OVC007=

USA.gov is the U.S. government's official web portal to all federal, state and local government web resources and services.